South Canterbury, Connecticut
Current Conditions -  °F | °C
As of 12:27 AM on Thursday 27 Nov 2014 (Local Time) from KIJD Reporting Station
Light Snow Light Snow  
Wind Chill: 26°   Ceiling: 1600
Heat Index: 34°   Visibility: 3mi
Dew Point: 31°   Wind: 10mph
Humidity: 89%   Direction: 340°NNW
Pressure: 29.74"   Gusts: NA
Location:  41.697°N, 71.9998°W
Report Text: KIJD 270527Z AUTO 34009KT 3SM -SN BR FEW009 OVC016 01/M01 A2974 RMK AO2 P0000 T00111006
Loading
Personal Weather Stations






























Interactive Weather Map New forecast layout! Learn more

10-Day Weather Forecast

Advertisements
Track Severe Weather on mobile